Latest Weather Observations for Scoresby

IDV60901

Issued at 10:01 pm EST Saturday 1 October 2016 (issued every 10 minutes, with the page automatically refreshed every 10 minutes)

About weather observations | Map of Melbourne area stations | Latest observations for Melbourne area | Other Formats
Station Details ID: 086104 Name: SCORESBY RESEARCH INSTITUTE Lat: -37.87 Lon: 145.26 Height: 80.0 m
Data from the previous 72 hours. | See also: Recent months at Scoresby
Date/Time
EST
Temp
°C
App
Temp
°C
Dew
Point
°C
Rel
Hum
%
Delta-T
°C
Wind Press
QNH
hPa
Press
MSL
hPa
Rain since
9am
mm
Dir  Spd
km/h
Gust
km/h
Spd
kts
Gust
kts
01/10:00pm 12.3 9.9 7.0 70 2.6 N 9 15 5 8 - - -
01/09:30pm 12.3 10.3 7.0 70 2.6 N 7 15 4 8 - - -
01/09:00pm 12.2 10.1 6.7 69 2.6 N 7 11 4 6 - - 0.0
01/08:30pm 12.4 10.3 6.5 67 2.8 N 7 11 4 6 - - -
01/08:00pm 12.7 10.4 5.8 63 3.3 N 7 17 4 9 - - -
01/07:30pm 13.0 10.8 6.4 64 3.2 N 7 17 4 9 - - -
01/07:00pm 13.2 10.7 6.5 64 3.2 N 9 17 5 9 - - -
01/06:30pm 13.8 11.0 7.1 64 3.3 N 11 22 6 12 - - -
01/06:00pm 14.4 11.8 7.7 64 3.3 N 11 24 6 13 - - -
01/05:30pm 15.2 12.5 7.5 60 3.8 NNW 11 28 6 15 - - -
01/05:00pm 15.9 12.8 7.4 57 4.2 NNW 13 30 7 16 - - -
01/04:30pm 15.9 13.3 7.7 58 4.1 NW 11 26 6 14 - - -
01/04:00pm 15.9 12.9 7.9 59 4.0 W 13 19 7 10 - - -
01/03:30pm 16.4 12.6 7.6 56 4.4 W 17 28 9 15 - - -
01/03:00pm 15.9 11.5 7.4 57 4.2 WNW 20 33 11 18 - - -
01/02:30pm 16.9 13.4 8.6 58 4.3 W 17 26 9 14 - - -
01/02:00pm 17.5 14.1 9.2 58 4.3 WNW 17 24 9 13 - - -
01/01:30pm 16.8 13.9 9.5 62 3.8 WNW 15 24 8 13 - - 1.8
01/01:00pm 15.1 12.1 9.2 68 3.0 WNW 15 28 8 15 - - 1.8
01/12:30pm 15.7 13.0 10.2 70 2.9 WNW 15 26 8 14 - - 1.8
01/12:00pm 14.3 12.3 10.1 76 2.2 W 11 20 6 11 - - 1.8
01/11:30am 13.1 12.3 11.2 88 1.0 NNW 6 13 3 7 - - 1.6
01/11:00am 12.4 11.7 11.3 93 0.6 NW 6 9 3 5 - - 1.4
01/10:30am 12.3 10.5 11.0 92 0.7 WNW 11 19 6 10 - - 1.2
01/10:00am 11.9 10.0 10.6 92 0.7 WNW 11 22 6 12 - - 1.0
01/09:30am 11.8 10.3 10.5 92 0.7 NW 9 20 5 11 - - 0.8
01/09:00am 12.0 10.4 10.2 89 0.9 NW 9 22 5 12 - - 2.2
01/08:30am 11.9 10.7 10.3 90 0.8 NW 7 17 4 9 - - 2.2
01/08:00am 12.0 10.4 10.2 89 0.9 NW 9 22 5 12 - - 2.2
01/07:30am 11.8 10.6 10.4 91 0.7 NNW 7 13 4 7 - - 2.2
01/07:00am 11.6 10.4 10.3 92 0.7 NW 7 17 4 9 - - 2.2
01/06:30am 11.4 9.8 10.3 93 0.6 NNW 9 15 5 8 - - 2.2
01/06:00am 11.2 10.5 10.1 93 0.6 NNW 4 9 2 5 - - 2.2
01/05:30am 11.1 9.7 9.7 91 0.7 NNW 7 17 4 9 - - 1.2
01/05:00am 10.8 10.0 9.7 93 0.6 N 4 9 2 5 - - 1.2
01/04:30am 10.9 9.6 9.3 90 0.8 NNE 6 11 3 6 - - 1.0
01/04:00am 11.6 9.6 8.8 83 1.4 NNW 9 17 5 9 - - 0.0
01/03:30am 11.6 9.6 8.6 82 1.5 NNE 9 17 5 9 - - 0.0
01/03:00am 11.5 9.5 8.7 83 1.4 N 9 17 5 9 - - 0.0
01/02:30am 11.1 8.7 8.8 86 1.1 NNE 11 17 6 9 - - 0.0
01/02:00am 11.1 9.1 8.8 86 1.1 NNE 9 17 5 9 - - 0.0
01/01:30am 11.0 8.6 8.6 85 1.2 N 11 20 6 11 - - 0.0
01/01:00am 11.3 9.5 8.0 80 1.6 N 7 15 4 8 - - 0.0
01/12:30am 11.2 8.6 7.7 79 1.7 NNE 11 15 6 8 - - 0.0
01/12:00am 11.1 9.2 7.6 79 1.7 NNE 7 13 4 7 - - 0.0
 
Date/Time
EST
Temp
°C
App
Temp
°C
Dew
Point
°C
Rel
Hum
%
Delta-T
°C
Wind Press
QNH
hPa
Press
MSL
hPa
Rain since
9am
mm
Dir  Spd
km/h
Gust
km/h
Spd
kts
Gust
kts
30/11:30pm 11.3 9.5 7.8 79 1.7 NNE 7 11 4 6 - - 0.0
30/11:00pm 11.4 9.9 8.3 81 1.5 NNE 6 11 3 6 - - 0.0
30/10:30pm 11.5 10.0 8.4 81 1.5 NNE 6 13 3 7 - - 0.0
30/10:00pm 11.8 10.1 8.5 80 1.6 NNE 7 11 4 6 - - 0.0
30/09:30pm 11.8 11.4 8.3 79 1.7 CALM 0 4 0 2 - - 0.0
30/09:00pm 12.3 10.6 7.4 72 2.4 N 6 9 3 5 - - 0.0
30/08:30pm 12.3 11.2 7.0 70 2.6 NW 2 6 1 3 - - 0.0
30/08:00pm 11.9 10.4 7.0 72 2.4 NW 4 6 2 3 - - 0.0
30/07:30pm 10.9 10.1 6.5 74 2.1 CALM 0 0 0 0 - - 0.0
30/07:00pm 11.9 11.0 6.0 67 2.8 CALM 0 0 0 0 - - 0.0
30/06:30pm 12.7 10.5 5.4 61 3.4 SW 6 7 3 4 - - 0.0
30/06:00pm 13.4 11.2 5.1 57 3.9 W 6 9 3 5 - - 0.0
30/05:30pm 13.9 11.8 5.8 58 3.9 WSW 6 7 3 4 - - 0.0
30/05:00pm 14.1 10.7 6.0 58 3.9 SW 13 19 7 10 - - 0.0
30/04:30pm 14.3 10.9 5.7 56 4.1 SW 13 20 7 11 - - 0.0
30/04:00pm 16.1 13.5 6.0 51 4.9 SW 9 15 5 8 - - 0.0
30/03:30pm 15.7 12.1 5.0 49 5.1 WSW 13 20 7 11 - - 0.0
30/03:00pm 16.4 13.7 5.7 49 5.2 W 9 17 5 9 - - 0.0
30/02:30pm 16.1 14.0 5.7 50 5.0 W 6 11 3 6 - - 0.0
30/02:00pm 15.3 12.5 5.0 50 4.9 NW 9 13 5 7 - - 0.0
30/01:30pm 15.4 13.1 5.6 52 4.7 NW 7 15 4 8 - - 0.0
30/01:00pm 15.1 12.6 4.5 49 5.0 WNW 7 13 4 7 - - 0.0
30/12:30pm 15.2 12.3 4.9 50 4.9 NNW 9 19 5 10 - - 0.0
30/12:00pm 14.0 11.7 4.9 54 4.3 N 6 9 3 5 - - 0.0
30/11:30am 14.0 11.4 6.1 59 3.8 N 9 13 5 7 - - 0.0
30/11:00am 13.2 10.6 6.1 62 3.4 N 9 15 5 8 - - 0.0
30/10:30am 11.9 8.9 6.2 68 2.7 WNW 11 19 6 10 - - 0.0
30/10:00am 11.6 9.4 6.1 69 2.6 WNW 7 13 4 7 - - 0.0
30/09:30am 12.4 10.1 5.8 64 3.1 N 7 15 4 8 - - 0.0
30/09:00am 12.9 10.4 6.7 66 3.0 N 9 15 5 8 - - 2.8
30/08:30am 11.2 9.3 7.5 78 1.8 NNW 7 15 4 8 - - 2.8
30/08:00am 11.0 9.2 8.1 82 1.4 NNE 7 11 4 6 - - 2.8
30/07:30am 9.9 8.2 7.7 86 1.1 NNW 6 9 3 5 - - 2.8
30/07:00am 9.5 8.6 7.6 88 0.9 N 2 4 1 2 - - 2.8
30/06:30am 9.0 7.2 7.1 88 0.9 NE 6 9 3 5 - - 2.8
30/06:00am 9.1 7.3 7.1 87 0.9 NNE 6 13 3 7 - - 2.8
30/05:30am 9.3 7.3 6.9 85 1.1 NNE 7 15 4 8 - - 2.8
30/05:00am 9.4 8.0 7.2 86 1.0 NE 4 13 2 7 - - 2.8
30/04:30am 9.0 7.5 6.8 86 1.0 NE 4 9 2 5 - - 2.8
30/04:00am 9.9 7.9 7.0 82 1.4 NNE 7 13 4 7 - - 2.8
30/03:30am 9.5 8.4 6.9 84 1.2 NE 2 6 1 3 - - 2.6
30/03:00am 9.8 8.2 6.2 78 1.7 E 4 9 2 5 - - 2.4
30/02:30am 10.0 7.8 6.0 76 1.9 ENE 7 13 4 7 - - 2.4
30/02:00am 10.9 8.0 6.3 73 2.2 ENE 11 22 6 12 - - 2.4
30/01:30am 10.5 7.2 6.5 76 1.9 ENE 13 20 7 11 - - 2.4
30/01:00am 10.4 6.3 6.2 75 2.0 NE 17 28 9 15 - - 2.4
30/12:30am 9.6 6.7 6.5 81 1.4 NE 11 19 6 10 - - 2.4
30/12:00am 8.9 6.8 6.7 86 1.0 NE 7 11 4 6 - - 2.4
 
Date/Time
EST
Temp
°C
App
Temp
°C
Dew
Point
°C
Rel
Hum
%
Delta-T
°C
Wind Press
QNH
hPa
Press
MSL
hPa
Rain since
9am
mm
Dir  Spd
km/h
Gust
km/h
Spd
kts
Gust
kts
29/11:30pm 9.5 6.5 6.2 80 1.5 NE 11 24 6 13 - - 1.8
29/11:00pm 9.7 7.0 5.5 75 1.9 NE 9 17 5 9 - - 1.8
29/10:30pm 9.9 5.2 5.3 73 2.1 NE 19 30 10 16 - - 1.8
29/10:00pm 10.2 5.9 5.4 72 2.2 NE 17 28 9 15 - - 1.8
29/09:30pm 9.4 6.6 5.0 74 2.0 ENE 9 15 5 8 - - 1.8
29/09:00pm 9.1 6.2 4.9 75 1.9 NE 9 15 5 8 - - 1.8
29/08:30pm 9.2 6.7 5.0 75 1.9 NE 7 13 4 7 - - 1.8
29/08:00pm 9.5 6.0 5.3 75 1.9 NE 13 22 7 12 - - 1.8
29/07:30pm 9.4 5.5 5.4 76 1.8 NE 15 24 8 13 - - 1.8
29/07:00pm 10.1 6.8 6.3 77 1.8 NE 13 22 7 12 - - 1.6
29/06:30pm 10.0 8.1 6.5 79 1.6 NNW 6 9 3 5 - - 1.6
29/06:00pm 10.2 7.3 6.4 77 1.8 NNE 11 22 6 12 - - 1.6
29/05:30pm 10.3 7.2 5.7 73 2.1 NE 11 19 6 10 - - 1.6
29/05:00pm 10.6 6.9 6.4 75 2.0 N 15 43 8 23 - - 1.4
29/04:30pm 11.6 6.0 5.5 66 2.8 NNE 24 43 13 23 - - 0.4
29/04:00pm 14.5 10.8 4.2 50 4.8 NNE 13 28 7 15 - - 0.0
29/03:30pm 14.6 10.5 2.2 43 5.5 N 13 26 7 14 - - 0.0
29/03:00pm 14.5 10.0 2.4 44 5.4 N 15 24 8 13 - - 0.0
29/02:30pm 15.7 10.6 2.8 42 5.8 N 19 32 10 17 - - 0.0
29/02:00pm 15.1 9.8 2.0 41 5.8 N 19 32 10 17 - - 0.0
29/01:30pm 15.2 9.0 2.1 41 5.8 NNW 24 44 13 24 - - 0.0
29/01:00pm 15.9 11.4 4.0 45 5.5 NNW 17 37 9 20 - - 0.0
29/12:30pm 14.6 9.7 4.0 49 4.9 NNW 19 35 10 19 - - 0.0
29/12:00pm 15.1 10.8 5.3 52 4.7 N 17 33 9 18 - - 0.0
29/11:30am 13.9 10.6 6.3 60 3.7 N 13 24 7 13 - - 0.0
29/11:00am 14.0 10.0 6.6 61 3.6 N 17 33 9 18 - - 0.0
29/10:30am 11.9 7.4 6.0 67 2.8 NNW 19 43 10 23 - - 0.0
29/10:00am 12.6 9.8 8.5 76 2.0 N 13 24 7 13 - - 0.0
29/09:30am 11.4 8.5 8.1 80 1.6 N 13 26 7 14 - - 0.0
29/09:00am 10.8 8.8 8.6 86 1.1 NNW 9 20 5 11 - - 4.2
29/08:30am 13.4 10.2 8.3 71 2.5 NNE 15 30 8 16 - - 2.6
29/08:00am 13.1 10.9 9.4 78 1.9 NNE 11 20 6 11 - - 2.6
29/07:30am 12.7 9.3 9.3 80 1.7 NNE 17 24 9 13 - - 2.6
29/07:00am 12.7 10.0 10.2 85 1.3 NE 15 28 8 15 - - 2.6
29/06:30am 12.6 9.2 10.5 87 1.1 NE 19 32 10 17 - - 2.4
29/06:00am 12.5 9.5 10.7 89 0.9 NNE 17 28 9 15 - - 2.4
29/05:30am 12.7 9.1 10.4 86 1.2 NNE 20 41 11 22 - - 1.8
29/05:00am 12.4 9.0 10.5 88 1.0 NE 19 30 10 16 - - 1.4
29/04:30am 12.3 9.6 10.4 88 1.0 NNE 15 26 8 14 - - 1.2
29/04:00am 12.6 9.4 10.1 85 1.3 NNE 17 33 9 18 - - 0.6
29/03:30am 13.1 9.3 9.9 81 1.6 NNE 20 35 11 19 - - 0.4
29/03:00am 13.4 8.8 9.6 78 2.0 NNE 24 37 13 20 - - 0.2
29/02:37am 13.9 8.4 9.3 74 2.4 NNE 28 50 15 27 - - 0.0
29/02:30am 14.0 9.3 9.4 74 2.4 NNE 24 44 13 24 - - 0.0
29/02:11am 14.4 8.8 8.8 69 2.8 NNE 28 54 15 29 - - 0.0
29/02:00am 15.2 10.6 8.0 62 3.6 NNE 22 41 12 22 - - 0.0
29/01:30am 15.4 11.5 6.9 57 4.2 NNE 17 33 9 18 - - 0.0
29/01:00am 15.8 10.0 6.3 53 4.6 NE 26 43 14 23 - - 0.0
29/12:30am 15.9 10.9 6.3 53 4.7 NNE 22 41 12 22 - - 0.0
29/12:00am 15.9 12.5 5.8 51 4.9 NNE 13 19 7 10 - - 0.0
 
Date/Time
EST
Temp
°C
App
Temp
°C
Dew
Point
°C
Rel
Hum
%
Delta-T
°C
Wind Press
QNH
hPa
Press
MSL
hPa
Rain since
9am
mm
Dir  Spd
km/h
Gust
km/h
Spd
kts
Gust
kts
28/11:30pm 15.8 11.6 5.7 51 4.9 NNE 17 30 9 16 - - 0.0
28/11:00pm 15.8 11.2 6.3 53 4.6 NE 20 35 11 19 - - 0.0
28/10:30pm 15.4 12.1 6.4 55 4.4 NNE 13 28 7 15 - - 0.0

Latest Capital City Observations: Canberra | Sydney | Melbourne | Brisbane | Adelaide | Perth | Hobart | Darwin

Other Formats:

Comma delimited format used in spreadsheet applications
http://www.bom.gov.au/fwo/IDV60901/IDV60901.95867.axf

JavaScript Object Notation format (JSON) in row-major order
http://www.bom.gov.au/fwo/IDV60901/IDV60901.95867.json